sensor_id;sensor_type;location;lat;lon;timestamp;temperature;humidity
10083;DHT22;5080;48.528;8.078;2022-07-23T00:01:04;23.60;99.90
10083;DHT22;5080;48.528;8.078;2022-07-23T00:03:30;23.50;99.90
10083;DHT22;5080;48.528;8.078;2022-07-23T00:05:57;23.60;99.90
10083;DHT22;5080;48.528;8.078;2022-07-23T00:08:24;23.60;99.90
10083;DHT22;5080;48.528;8.078;2022-07-23T00:13:28;23.60;99.90
10083;DHT22;5080;48.528;8.078;2022-07-23T00:15:55;23.60;99.90
10083;DHT22;5080;48.528;8.078;2022-07-23T00:18:22;23.60;99.90
10083;DHT22;5080;48.528;8.078;2022-07-23T00:20:49;23.50;99.90
10083;DHT22;5080;48.528;8.078;2022-07-23T00:23:16;23.50;99.90
10083;DHT22;5080;48.528;8.078;2022-07-23T00:25:43;23.50;99.90
10083;DHT22;5080;48.528;8.078;2022-07-23T00:28:11;23.60;99.90
10083;DHT22;5080;48.528;8.078;2022-07-23T00:30:39;23.60;99.90
10083;DHT22;5080;48.528;8.078;2022-07-23T00:33:07;23.60;99.90
10083;DHT22;5080;48.528;8.078;2022-07-23T00:35:35;23.60;99.90
10083;DHT22;5080;48.528;8.078;2022-07-23T00:38:03;23.60;99.90
10083;DHT22;5080;48.528;8.078;2022-07-23T00:40:31;23.50;99.90
10083;DHT22;5080;48.528;8.078;2022-07-23T00:42:58;23.60;99.90
10083;DHT22;5080;48.528;8.078;2022-07-23T00:45:25;23.60;99.90
10083;DHT22;5080;48.528;8.078;2022-07-23T00:47:54;23.60;99.90
10083;DHT22;5080;48.528;8.078;2022-07-23T00:50:21;23.60;99.90
10083;DHT22;5080;48.528;8.078;2022-07-23T00:52:48;23.60;99.90
10083;DHT22;5080;48.528;8.078;2022-07-23T00:55:15;23.60;99.90
10083;DHT22;5080;48.528;8.078;2022-07-23T00:57:42;23.60;99.90
10083;DHT22;5080;48.528;8.078;2022-07-23T01:00:11;23.50;99.90
10083;DHT22;5080;48.528;8.078;2022-07-23T01:02:39;23.50;99.90
10083;DHT22;5080;48.528;8.078;2022-07-23T01:05:08;23.50;99.90
10083;DHT22;5080;48.528;8.078;2022-07-23T01:07:35;23.40;99.90
10083;DHT22;5080;48.528;8.078;2022-07-23T01:10:03;23.40;99.90
10083;DHT22;5080;48.528;8.078;2022-07-23T01:12:30;23.30;99.90
10083;DHT22;5080;48.528;8.078;2022-07-23T01:14:58;23.20;99.90
10083;DHT22;5080;48.528;8.078;2022-07-23T01:17:25;23.10;99.90
10083;DHT22;5080;48.528;8.078;2022-07-23T01:19:52;23.00;99.90
10083;DHT22;5080;48.528;8.078;2022-07-23T01:22:20;22.80;99.90
10083;DHT22;5080;48.528;8.078;2022-07-23T01:24:49;22.80;99.90
10083;DHT22;5080;48.528;8.078;2022-07-23T01:27:15;22.80;99.90
10083;DHT22;5080;48.528;8.078;2022-07-23T01:29:45;22.80;99.90
10083;DHT22;5080;48.528;8.078;2022-07-23T01:32:11;22.80;99.90
10083;DHT22;5080;48.528;8.078;2022-07-23T01:34:38;22.70;99.90
10083;DHT22;5080;48.528;8.078;2022-07-23T01:37:06;22.70;99.90
10083;DHT22;5080;48.528;8.078;2022-07-23T01:39:33;22.70;99.90
10083;DHT22;5080;48.528;8.078;2022-07-23T01:42:01;22.60;99.90
10083;DHT22;5080;48.528;8.078;2022-07-23T01:44:28;22.50;99.90
10083;DHT22;5080;48.528;8.078;2022-07-23T01:46:56;22.50;99.90
10083;DHT22;5080;48.528;8.078;2022-07-23T01:49:23;22.50;99.90
10083;DHT22;5080;48.528;8.078;2022-07-23T01:51:50;22.40;99.90
10083;DHT22;5080;48.528;8.078;2022-07-23T01:54:33;22.40;99.90
10083;DHT22;5080;48.528;8.078;2022-07-23T01:57:02;22.40;99.90
10083;DHT22;5080;48.528;8.078;2022-07-23T01:59:28;22.30;99.90
10083;DHT22;5080;48.528;8.078;2022-07-23T02:01:55;22.30;99.90
10083;DHT22;5080;48.528;8.078;2022-07-23T02:04:23;22.20;99.90
10083;DHT22;5080;48.528;8.078;2022-07-23T02:06:51;22.20;99.90
10083;DHT22;5080;48.528;8.078;2022-07-23T02:09:18;22.10;99.90
10083;DHT22;5080;48.528;8.078;2022-07-23T02:11:45;22.10;99.90
10083;DHT22;5080;48.528;8.078;2022-07-23T02:14:13;22.00;99.90
10083;DHT22;5080;48.528;8.078;2022-07-23T02:16:40;22.00;99.90
10083;DHT22;5080;48.528;8.078;2022-07-23T02:19:07;21.90;99.90
10083;DHT22;5080;48.528;8.078;2022-07-23T02:21:33;21.90;99.90
10083;DHT22;5080;48.528;8.078;2022-07-23T02:24:01;21.80;99.90
10083;DHT22;5080;48.528;8.078;2022-07-23T02:26:28;21.90;99.90
10083;DHT22;5080;48.528;8.078;2022-07-23T02:28:54;21.90;99.90
10083;DHT22;5080;48.528;8.078;2022-07-23T02:31:23;21.90;99.90
10083;DHT22;5080;48.528;8.078;2022-07-23T02:33:49;22.00;99.90
10083;DHT22;5080;48.528;8.078;2022-07-23T02:36:16;22.00;99.90
10083;DHT22;5080;48.528;8.078;2022-07-23T02:38:43;21.90;99.90
10083;DHT22;5080;48.528;8.078;2022-07-23T02:41:10;21.90;99.90
10083;DHT22;5080;48.528;8.078;2022-07-23T02:43:37;21.90;99.90
10083;DHT22;5080;48.528;8.078;2022-07-23T02:46:03;21.80;99.90
10083;DHT22;5080;48.528;8.078;2022-07-23T02:48:32;21.80;99.90
10083;DHT22;5080;48.528;8.078;2022-07-23T02:50:58;21.70;99.90
10083;DHT22;5080;48.528;8.078;2022-07-23T02:53:25;21.70;99.90
10083;DHT22;5080;48.528;8.078;2022-07-23T02:55:52;21.60;99.90
10083;DHT22;5080;48.528;8.078;2022-07-23T02:58:19;21.50;99.90
10083;DHT22;5080;48.528;8.078;2022-07-23T03:00:46;21.50;99.90
10083;DHT22;5080;48.528;8.078;2022-07-23T03:03:13;21.50;99.90
10083;DHT22;5080;48.528;8.078;2022-07-23T03:05:42;21.50;99.90
10083;DHT22;5080;48.528;8.078;2022-07-23T03:08:08;21.50;99.90
10083;DHT22;5080;48.528;8.078;2022-07-23T03:10:35;21.50;99.90
10083;DHT22;5080;48.528;8.078;2022-07-23T03:13:02;21.50;99.90
10083;DHT22;5080;48.528;8.078;2022-07-23T03:15:29;21.50;99.90
10083;DHT22;5080;48.528;8.078;2022-07-23T03:17:56;21.50;99.90
10083;DHT22;5080;48.528;8.078;2022-07-23T03:20:22;21.40;99.90
10083;DHT22;5080;48.528;8.078;2022-07-23T03:22:51;21.40;99.90
10083;DHT22;5080;48.528;8.078;2022-07-23T03:25:17;21.30;99.90
10083;DHT22;5080;48.528;8.078;2022-07-23T03:27:44;21.40;99.90
10083;DHT22;5080;48.528;8.078;2022-07-23T03:30:12;21.40;99.90
10083;DHT22;5080;48.528;8.078;2022-07-23T03:32:39;21.40;99.90
10083;DHT22;5080;48.528;8.078;2022-07-23T03:35:06;21.30;99.90
10083;DHT22;5080;48.528;8.078;2022-07-23T03:37:33;21.40;99.90
10083;DHT22;5080;48.528;8.078;2022-07-23T03:40:02;21.40;99.90
10083;DHT22;5080;48.528;8.078;2022-07-23T03:42:29;21.40;99.90
10083;DHT22;5080;48.528;8.078;2022-07-23T03:44:56;21.40;99.90
10083;DHT22;5080;48.528;8.078;2022-07-23T03:47:22;21.40;99.90
10083;DHT22;5080;48.528;8.078;2022-07-23T03:49:49;21.40;99.90
10083;DHT22;5080;48.528;8.078;2022-07-23T03:52:16;21.40;99.90
10083;DHT22;5080;48.528;8.078;2022-07-23T03:54:43;21.30;99.90
10083;DHT22;5080;48.528;8.078;2022-07-23T03:57:11;21.30;99.90
10083;DHT22;5080;48.528;8.078;2022-07-23T03:59:38;21.30;99.90
10083;DHT22;5080;48.528;8.078;2022-07-23T04:02:05;21.30;99.90
10083;DHT22;5080;48.528;8.078;2022-07-23T04:04:32;21.30;99.90
10083;DHT22;5080;48.528;8.078;2022-07-23T04:06:58;21.30;99.90
10083;DHT22;5080;48.528;8.078;2022-07-23T04:09:26;21.30;99.90
10083;DHT22;5080;48.528;8.078;2022-07-23T04:11:53;21.30;99.90
10083;DHT22;5080;48.528;8.078;2022-07-23T04:14:21;21.30;99.90
10083;DHT22;5080;48.528;8.078;2022-07-23T04:16:48;21.30;99.90
10083;DHT22;5080;48.528;8.078;2022-07-23T04:19:15;21.30;99.90
10083;DHT22;5080;48.528;8.078;2022-07-23T04:21:42;21.30;99.90
10083;DHT22;5080;48.528;8.078;2022-07-23T04:24:09;21.30;99.90
10083;DHT22;5080;48.528;8.078;2022-07-23T04:26:35;21.20;99.90
10083;DHT22;5080;48.528;8.078;2022-07-23T04:29:02;21.20;99.90
10083;DHT22;5080;48.528;8.078;2022-07-23T04:31:31;21.20;99.90
10083;DHT22;5080;48.528;8.078;2022-07-23T04:33:57;21.20;99.90
10083;DHT22;5080;48.528;8.078;2022-07-23T04:36:24;21.30;99.90
10083;DHT22;5080;48.528;8.078;2022-07-23T04:38:51;21.30;99.90
10083;DHT22;5080;48.528;8.078;2022-07-23T04:41:18;21.40;99.90
10083;DHT22;5080;48.528;8.078;2022-07-23T04:43:45;21.40;99.90
10083;DHT22;5080;48.528;8.078;2022-07-23T04:46:12;21.50;99.90
10083;DHT22;5080;48.528;8.078;2022-07-23T04:48:40;21.70;99.90
10083;DHT22;5080;48.528;8.078;2022-07-23T04:51:08;21.80;99.90
10083;DHT22;5080;48.528;8.078;2022-07-23T04:53:37;21.90;99.90
10083;DHT22;5080;48.528;8.078;2022-07-23T04:56:04;22.00;99.90
10083;DHT22;5080;48.528;8.078;2022-07-23T04:58:31;22.00;99.90
10083;DHT22;5080;48.528;8.078;2022-07-23T05:00:58;22.10;99.90
10083;DHT22;5080;48.528;8.078;2022-07-23T05:03:25;22.20;99.90
10083;DHT22;5080;48.528;8.078;2022-07-23T05:05:53;22.20;99.90
10083;DHT22;5080;48.528;8.078;2022-07-23T05:08:20;22.20;99.90
10083;DHT22;5080;48.528;8.078;2022-07-23T05:10:47;22.20;99.90
10083;DHT22;5080;48.528;8.078;2022-07-23T05:13:14;22.40;99.90
10083;DHT22;5080;48.528;8.078;2022-07-23T05:15:42;22.50;99.90
10083;DHT22;5080;48.528;8.078;2022-07-23T05:18:09;22.50;99.90
10083;DHT22;5080;48.528;8.078;2022-07-23T05:20:36;22.50;99.90
10083;DHT22;5080;48.528;8.078;2022-07-23T05:23:04;22.60;99.90
10083;DHT22;5080;48.528;8.078;2022-07-23T05:25:31;22.60;99.90
10083;DHT22;5080;48.528;8.078;2022-07-23T05:27:58;22.70;99.90
10083;DHT22;5080;48.528;8.078;2022-07-23T05:30:25;22.90;99.90
10083;DHT22;5080;48.528;8.078;2022-07-23T05:32:52;23.10;99.90
10083;DHT22;5080;48.528;8.078;2022-07-23T05:35:19;23.20;99.90
10083;DHT22;5080;48.528;8.078;2022-07-23T05:37:45;23.20;99.90
10083;DHT22;5080;48.528;8.078;2022-07-23T05:40:14;23.20;99.90
10083;DHT22;5080;48.528;8.078;2022-07-23T05:42:41;23.20;99.90
10083;DHT22;5080;48.528;8.078;2022-07-23T05:45:09;23.20;99.90
10083;DHT22;5080;48.528;8.078;2022-07-23T05:47:40;23.20;99.90
10083;DHT22;5080;48.528;8.078;2022-07-23T05:50:08;23.20;99.90
10083;DHT22;5080;48.528;8.078;2022-07-23T05:52:35;23.30;99.90
10083;DHT22;5080;48.528;8.078;2022-07-23T05:55:02;23.20;99.90
10083;DHT22;5080;48.528;8.078;2022-07-23T05:57:30;23.20;99.90
10083;DHT22;5080;48.528;8.078;2022-07-23T05:59:57;23.20;99.90
10083;DHT22;5080;48.528;8.078;2022-07-23T06:02:24;23.20;99.90
10083;DHT22;5080;48.528;8.078;2022-07-23T06:04:51;23.20;99.90
10083;DHT22;5080;48.528;8.078;2022-07-23T06:07:18;23.30;99.90
10083;DHT22;5080;48.528;8.078;2022-07-23T06:09:44;23.50;99.90
10083;DHT22;5080;48.528;8.078;2022-07-23T06:12:12;23.70;99.90
10083;DHT22;5080;48.528;8.078;2022-07-23T06:14:41;23.90;99.90
10083;DHT22;5080;48.528;8.078;2022-07-23T06:17:08;23.90;99.90
10083;DHT22;5080;48.528;8.078;2022-07-23T06:19:35;23.80;99.90
10083;DHT22;5080;48.528;8.078;2022-07-23T06:22:02;23.80;99.90
10083;DHT22;5080;48.528;8.078;2022-07-23T06:24:29;23.90;99.90
10083;DHT22;5080;48.528;8.078;2022-07-23T06:26:55;24.10;99.90
10083;DHT22;5080;48.528;8.078;2022-07-23T06:29:22;24.10;99.90
10083;DHT22;5080;48.528;8.078;2022-07-23T06:31:50;24.10;99.90
10083;DHT22;5080;48.528;8.078;2022-07-23T06:34:17;24.20;99.90
10083;DHT22;5080;48.528;8.078;2022-07-23T06:36:44;24.20;99.90
10083;DHT22;5080;48.528;8.078;2022-07-23T06:39:11;24.40;99.90
10083;DHT22;5080;48.528;8.078;2022-07-23T06:41:38;24.60;99.90
10083;DHT22;5080;48.528;8.078;2022-07-23T06:44:05;24.60;99.90
10083;DHT22;5080;48.528;8.078;2022-07-23T06:46:32;24.60;99.90
10083;DHT22;5080;48.528;8.078;2022-07-23T06:49:00;24.60;99.90
10083;DHT22;5080;48.528;8.078;2022-07-23T06:51:27;24.90;99.90
10083;DHT22;5080;48.528;8.078;2022-07-23T06:53:54;25.20;99.90
10083;DHT22;5080;48.528;8.078;2022-07-23T06:56:21;25.30;99.90
10083;DHT22;5080;48.528;8.078;2022-07-23T06:58:47;25.30;99.90
10083;DHT22;5080;48.528;8.078;2022-07-23T07:01:14;25.20;99.90
10083;DHT22;5080;48.528;8.078;2022-07-23T07:03:41;25.10;99.90
10083;DHT22;5080;48.528;8.078;2022-07-23T07:06:10;25.00;99.90
10083;DHT22;5080;48.528;8.078;2022-07-23T07:08:37;24.90;99.90
10083;DHT22;5080;48.528;8.078;2022-07-23T07:11:03;24.60;99.90
10083;DHT22;5080;48.528;8.078;2022-07-23T07:13:30;24.50;99.90
10083;DHT22;5080;48.528;8.078;2022-07-23T07:15:57;24.40;99.90
10083;DHT22;5080;48.528;8.078;2022-07-23T07:18:24;24.50;99.90
10083;DHT22;5080;48.528;8.078;2022-07-23T07:20:51;24.60;99.90
10083;DHT22;5080;48.528;8.078;2022-07-23T07:23:20;24.80;99.90
10083;DHT22;5080;48.528;8.078;2022-07-23T07:25:47;24.80;99.90
10083;DHT22;5080;48.528;8.078;2022-07-23T07:28:13;24.90;99.90
10083;DHT22;5080;48.528;8.078;2022-07-23T07:30:41;24.90;99.90
10083;DHT22;5080;48.528;8.078;2022-07-23T07:33:07;25.00;99.90
10083;DHT22;5080;48.528;8.078;2022-07-23T07:35:34;25.10;99.90
10083;DHT22;5080;48.528;8.078;2022-07-23T07:38:01;25.40;99.90
10083;DHT22;5080;48.528;8.078;2022-07-23T07:40:30;25.60;99.90
10083;DHT22;5080;48.528;8.078;2022-07-23T07:42:56;25.70;99.90
10083;DHT22;5080;48.528;8.078;2022-07-23T07:45:24;25.80;99.90
10083;DHT22;5080;48.528;8.078;2022-07-23T07:47:51;25.70;99.90
10083;DHT22;5080;48.528;8.078;2022-07-23T07:50:19;25.70;99.90
10083;DHT22;5080;48.528;8.078;2022-07-23T07:52:46;25.60;99.90
10083;DHT22;5080;48.528;8.078;2022-07-23T07:55:13;25.70;99.90
10083;DHT22;5080;48.528;8.078;2022-07-23T07:57:45;25.50;99.90
10083;DHT22;5080;48.528;8.078;2022-07-23T08:00:12;25.60;99.90
10083;DHT22;5080;48.528;8.078;2022-07-23T08:02:42;25.70;99.90
10083;DHT22;5080;48.528;8.078;2022-07-23T08:05:09;26.00;99.90
10083;DHT22;5080;48.528;8.078;2022-07-23T08:07:37;25.90;99.90
10083;DHT22;5080;48.528;8.078;2022-07-23T08:10:05;25.70;99.90
10083;DHT22;5080;48.528;8.078;2022-07-23T08:12:41;25.60;99.90
10083;DHT22;5080;48.528;8.078;2022-07-23T08:15:12;25.50;99.90
10083;DHT22;5080;48.528;8.078;2022-07-23T08:17:39;25.50;99.90
10083;DHT22;5080;48.528;8.078;2022-07-23T08:20:07;25.50;99.90
10083;DHT22;5080;48.528;8.078;2022-07-23T08:22:45;25.40;99.90
10083;DHT22;5080;48.528;8.078;2022-07-23T08:25:12;25.40;99.90
10083;DHT22;5080;48.528;8.078;2022-07-23T08:27:39;25.10;99.90
10083;DHT22;5080;48.528;8.078;2022-07-23T08:30:07;25.00;99.90
10083;DHT22;5080;48.528;8.078;2022-07-23T08:32:52;25.00;99.90
10083;DHT22;5080;48.528;8.078;2022-07-23T08:35:25;25.10;99.90
10083;DHT22;5080;48.528;8.078;2022-07-23T08:37:52;25.10;99.90
10083;DHT22;5080;48.528;8.078;2022-07-23T08:40:19;25.10;99.90
10083;DHT22;5080;48.528;8.078;2022-07-23T08:42:48;25.50;99.90
10083;DHT22;5080;48.528;8.078;2022-07-23T08:45:17;25.70;99.90
10083;DHT22;5080;48.528;8.078;2022-07-23T08:47:50;25.80;99.90
10083;DHT22;5080;48.528;8.078;2022-07-23T08:50:18;26.00;99.90
10083;DHT22;5080;48.528;8.078;2022-07-23T08:52:45;26.30;99.90
10083;DHT22;5080;48.528;8.078;2022-07-23T08:55:13;26.50;99.90
10083;DHT22;5080;48.528;8.078;2022-07-23T08:57:41;26.70;99.90
10083;DHT22;5080;48.528;8.078;2022-07-23T09:00:09;26.80;99.90
10083;DHT22;5080;48.528;8.078;2022-07-23T09:02:39;26.70;99.90
10083;DHT22;5080;48.528;8.078;2022-07-23T09:05:09;26.70;99.90
10083;DHT22;5080;48.528;8.078;2022-07-23T09:07:36;26.50;99.90
10083;DHT22;5080;48.528;8.078;2022-07-23T09:10:09;26.40;99.90
10083;DHT22;5080;48.528;8.078;2022-07-23T09:12:37;26.40;99.90
10083;DHT22;5080;48.528;8.078;2022-07-23T09:15:06;26.60;99.90
10083;DHT22;5080;48.528;8.078;2022-07-23T09:17:38;26.80;99.90
10083;DHT22;5080;48.528;8.078;2022-07-23T09:20:14;26.90;99.90
10083;DHT22;5080;48.528;8.078;2022-07-23T09:22:45;26.90;99.90
10083;DHT22;5080;48.528;8.078;2022-07-23T09:25:14;26.70;99.90
10083;DHT22;5080;48.528;8.078;2022-07-23T09:27:53;26.70;99.90
10083;DHT22;5080;48.528;8.078;2022-07-23T09:30:21;26.60;99.90
10083;DHT22;5080;48.528;8.078;2022-07-23T09:33:04;26.40;99.90
10083;DHT22;5080;48.528;8.078;2022-07-23T09:35:46;26.60;99.90
10083;DHT22;5080;48.528;8.078;2022-07-23T09:38:14;26.80;99.90
10083;DHT22;5080;48.528;8.078;2022-07-23T09:40:41;26.80;99.90
10083;DHT22;5080;48.528;8.078;2022-07-23T09:43:08;26.90;99.90
10083;DHT22;5080;48.528;8.078;2022-07-23T09:45:35;27.00;99.90
10083;DHT22;5080;48.528;8.078;2022-07-23T09:48:12;27.00;99.90
10083;DHT22;5080;48.528;8.078;2022-07-23T09:50:40;26.80;99.90
10083;DHT22;5080;48.528;8.078;2022-07-23T09:53:08;26.80;99.90
10083;DHT22;5080;48.528;8.078;2022-07-23T09:55:36;26.80;99.90
10083;DHT22;5080;48.528;8.078;2022-07-23T09:58:05;27.00;99.90
10083;DHT22;5080;48.528;8.078;2022-07-23T10:00:35;27.20;99.90
10083;DHT22;5080;48.528;8.078;2022-07-23T10:03:04;27.40;99.90
10083;DHT22;5080;48.528;8.078;2022-07-23T10:05:33;27.30;99.90
10083;DHT22;5080;48.528;8.078;2022-07-23T10:08:02;27.20;99.90
10083;DHT22;5080;48.528;8.078;2022-07-23T10:10:30;27.30;99.90
10083;DHT22;5080;48.528;8.078;2022-07-23T10:12:58;27.40;99.90
10083;DHT22;5080;48.528;8.078;2022-07-23T10:15:42;27.70;99.90
10083;DHT22;5080;48.528;8.078;2022-07-23T10:18:11;28.20;99.90
10083;DHT22;5080;48.528;8.078;2022-07-23T10:20:38;28.30;99.90
10083;DHT22;5080;48.528;8.078;2022-07-23T10:23:18;28.40;99.90
10083;DHT22;5080;48.528;8.078;2022-07-23T10:25:58;28.20;99.90
10083;DHT22;5080;48.528;8.078;2022-07-23T10:28:42;28.20;99.90
10083;DHT22;5080;48.528;8.078;2022-07-23T10:31:17;28.40;99.90
10083;DHT22;5080;48.528;8.078;2022-07-23T10:33:56;28.70;99.90
10083;DHT22;5080;48.528;8.078;2022-07-23T10:36:40;28.50;99.90
10083;DHT22;5080;48.528;8.078;2022-07-23T10:39:15;28.80;99.90
10083;DHT22;5080;48.528;8.078;2022-07-23T10:41:45;29.10;99.90
10083;DHT22;5080;48.528;8.078;2022-07-23T10:44:15;29.40;99.90
10083;DHT22;5080;48.528;8.078;2022-07-23T10:46:55;29.10;99.90
10083;DHT22;5080;48.528;8.078;2022-07-23T10:49:39;29.10;99.90
10083;DHT22;5080;48.528;8.078;2022-07-23T10:52:17;29.20;99.90
10083;DHT22;5080;48.528;8.078;2022-07-23T10:54:46;29.20;99.90
10083;DHT22;5080;48.528;8.078;2022-07-23T10:57:15;29.10;99.90
10083;DHT22;5080;48.528;8.078;2022-07-23T11:00:20;29.10;99.90
10083;DHT22;5080;48.528;8.078;2022-07-23T11:02:48;29.00;99.90
10083;DHT22;5080;48.528;8.078;2022-07-23T11:05:16;29.20;99.90
10083;DHT22;5080;48.528;8.078;2022-07-23T11:08:12;29.50;99.90
10083;DHT22;5080;48.528;8.078;2022-07-23T11:10:43;29.20;99.90
10083;DHT22;5080;48.528;8.078;2022-07-23T11:16:12;29.20;99.90
10083;DHT22;5080;48.528;8.078;2022-07-23T11:19:08;29.80;99.90
10083;DHT22;5080;48.528;8.078;2022-07-23T11:21:51;30.10;99.90
10083;DHT22;5080;48.528;8.078;2022-07-23T11:24:23;30.10;99.90
10083;DHT22;5080;48.528;8.078;2022-07-23T11:26:54;29.80;99.90
10083;DHT22;5080;48.528;8.078;2022-07-23T11:29:49;29.80;99.90
10083;DHT22;5080;48.528;8.078;2022-07-23T11:32:36;30.20;99.90
10083;DHT22;5080;48.528;8.078;2022-07-23T11:35:22;30.60;99.90
10083;DHT22;5080;48.528;8.078;2022-07-23T11:37:51;30.90;99.90
10083;DHT22;5080;48.528;8.078;2022-07-23T11:40:24;30.80;99.90
10083;DHT22;5080;48.528;8.078;2022-07-23T11:42:53;30.70;99.90
10083;DHT22;5080;48.528;8.078;2022-07-23T11:45:21;30.70;99.90
10083;DHT22;5080;48.528;8.078;2022-07-23T11:47:51;31.00;99.90
10083;DHT22;5080;48.528;8.078;2022-07-23T11:50:18;31.00;99.90
10083;DHT22;5080;48.528;8.078;2022-07-23T11:52:45;30.70;99.90
10083;DHT22;5080;48.528;8.078;2022-07-23T11:55:12;30.60;99.90
10083;DHT22;5080;48.528;8.078;2022-07-23T11:57:42;30.80;99.90
10083;DHT22;5080;48.528;8.078;2022-07-23T12:00:11;31.00;99.90
10083;DHT22;5080;48.528;8.078;2022-07-23T12:02:38;30.80;99.90
10083;DHT22;5080;48.528;8.078;2022-07-23T12:05:09;30.70;99.90
10083;DHT22;5080;48.528;8.078;2022-07-23T12:07:40;30.80;99.90
10083;DHT22;5080;48.528;8.078;2022-07-23T12:10:11;31.00;99.90
10083;DHT22;5080;48.528;8.078;2022-07-23T12:12:39;31.00;99.90
10083;DHT22;5080;48.528;8.078;2022-07-23T12:15:07;30.50;99.90
10083;DHT22;5080;48.528;8.078;2022-07-23T12:17:37;30.50;99.90
10083;DHT22;5080;48.528;8.078;2022-07-23T12:20:08;30.50;99.90
10083;DHT22;5080;48.528;8.078;2022-07-23T12:22:37;30.70;99.90
10083;DHT22;5080;48.528;8.078;2022-07-23T12:25:07;30.90;99.90
10083;DHT22;5080;48.528;8.078;2022-07-23T12:27:35;31.10;99.90
10083;DHT22;5080;48.528;8.078;2022-07-23T12:30:19;31.10;99.90
10083;DHT22;5080;48.528;8.078;2022-07-23T12:32:48;31.10;99.90
10083;DHT22;5080;48.528;8.078;2022-07-23T12:35:17;31.10;99.90
10083;DHT22;5080;48.528;8.078;2022-07-23T12:37:45;30.90;99.90
10083;DHT22;5080;48.528;8.078;2022-07-23T12:40:20;30.80;99.90
10083;DHT22;5080;48.528;8.078;2022-07-23T12:42:48;31.00;99.90
10083;DHT22;5080;48.528;8.078;2022-07-23T12:45:16;31.10;99.90
10083;DHT22;5080;48.528;8.078;2022-07-23T12:48:07;31.20;99.90
10083;DHT22;5080;48.528;8.078;2022-07-23T12:50:38;31.20;99.90
10083;DHT22;5080;48.528;8.078;2022-07-23T12:53:08;31.00;99.90
10083;DHT22;5080;48.528;8.078;2022-07-23T12:55:36;30.80;99.90
10083;DHT22;5080;48.528;8.078;2022-07-23T12:58:08;30.80;99.90
10083;DHT22;5080;48.528;8.078;2022-07-23T13:00:59;30.80;99.90
10083;DHT22;5080;48.528;8.078;2022-07-23T13:03:29;30.80;99.90
10083;DHT22;5080;48.528;8.078;2022-07-23T13:05:59;31.00;99.90
10083;DHT22;5080;48.528;8.078;2022-07-23T13:08:28;31.00;99.90
10083;DHT22;5080;48.528;8.078;2022-07-23T13:10:56;30.90;99.90
10083;DHT22;5080;48.528;8.078;2022-07-23T13:13:27;30.80;99.90
10083;DHT22;5080;48.528;8.078;2022-07-23T13:15:55;30.70;99.90
10083;DHT22;5080;48.528;8.078;2022-07-23T13:18:22;30.60;99.90
10083;DHT22;5080;48.528;8.078;2022-07-23T13:20:49;30.70;99.90
10083;DHT22;5080;48.528;8.078;2022-07-23T13:23:18;31.00;99.90
10083;DHT22;5080;48.528;8.078;2022-07-23T13:25:45;31.00;99.90
10083;DHT22;5080;48.528;8.078;2022-07-23T13:28:13;31.20;99.90
10083;DHT22;5080;48.528;8.078;2022-07-23T13:30:40;31.30;99.90
10083;DHT22;5080;48.528;8.078;2022-07-23T13:33:07;31.50;99.90
10083;DHT22;5080;48.528;8.078;2022-07-23T13:35:35;31.50;99.90
10083;DHT22;5080;48.528;8.078;2022-07-23T13:38:02;31.50;99.90
10083;DHT22;5080;48.528;8.078;2022-07-23T13:40:30;31.80;99.90
10083;DHT22;5080;48.528;8.078;2022-07-23T13:42:57;32.00;99.90
10083;DHT22;5080;48.528;8.078;2022-07-23T13:45:24;32.20;99.90
10083;DHT22;5080;48.528;8.078;2022-07-23T13:47:51;32.20;99.90
10083;DHT22;5080;48.528;8.078;2022-07-23T13:50:18;32.30;99.90
10083;DHT22;5080;48.528;8.078;2022-07-23T13:52:45;32.30;99.90
10083;DHT22;5080;48.528;8.078;2022-07-23T13:55:12;31.90;99.90
10083;DHT22;5080;48.528;8.078;2022-07-23T13:57:40;31.70;99.90
10083;DHT22;5080;48.528;8.078;2022-07-23T14:00:09;31.60;99.90
10083;DHT22;5080;48.528;8.078;2022-07-23T14:02:38;31.40;99.90
10083;DHT22;5080;48.528;8.078;2022-07-23T14:05:05;31.40;99.90
10083;DHT22;5080;48.528;8.078;2022-07-23T14:07:33;31.60;99.90
10083;DHT22;5080;48.528;8.078;2022-07-23T14:10:00;31.80;99.90
10083;DHT22;5080;48.528;8.078;2022-07-23T14:12:27;31.90;99.90
10083;DHT22;5080;48.528;8.078;2022-07-23T14:14:55;31.80;99.90
10083;DHT22;5080;48.528;8.078;2022-07-23T14:17:22;31.90;99.90
10083;DHT22;5080;48.528;8.078;2022-07-23T14:19:50;32.10;99.90
10083;DHT22;5080;48.528;8.078;2022-07-23T14:22:17;32.30;99.90
10083;DHT22;5080;48.528;8.078;2022-07-23T14:24:44;32.50;99.90
10083;DHT22;5080;48.528;8.078;2022-07-23T14:27:11;32.60;99.90
10083;DHT22;5080;48.528;8.078;2022-07-23T14:29:38;32.60;99.90
10083;DHT22;5080;48.528;8.078;2022-07-23T14:32:07;32.60;99.90
10083;DHT22;5080;48.528;8.078;2022-07-23T14:34:34;32.40;99.90
10083;DHT22;5080;48.528;8.078;2022-07-23T14:37:01;32.50;99.90
10083;DHT22;5080;48.528;8.078;2022-07-23T14:39:28;32.30;99.90
10083;DHT22;5080;48.528;8.078;2022-07-23T14:41:55;32.30;99.90
10083;DHT22;5080;48.528;8.078;2022-07-23T14:44:22;32.20;99.90
10083;DHT22;5080;48.528;8.078;2022-07-23T14:46:49;31.90;99.90
10083;DHT22;5080;48.528;8.078;2022-07-23T14:49:17;31.50;99.90
10083;DHT22;5080;48.528;8.078;2022-07-23T14:51:44;31.20;99.90
10083;DHT22;5080;48.528;8.078;2022-07-23T14:54:11;31.10;99.90
10083;DHT22;5080;48.528;8.078;2022-07-23T14:56:39;31.00;99.90
10083;DHT22;5080;48.528;8.078;2022-07-23T14:59:07;30.80;99.90
10083;DHT22;5080;48.528;8.078;2022-07-23T15:01:34;30.70;99.90
10083;DHT22;5080;48.528;8.078;2022-07-23T15:04:02;30.80;99.90
10083;DHT22;5080;48.528;8.078;2022-07-23T15:06:30;30.70;99.90
10083;DHT22;5080;48.528;8.078;2022-07-23T15:08:57;30.80;99.90
10083;DHT22;5080;48.528;8.078;2022-07-23T15:11:25;30.80;99.90
10083;DHT22;5080;48.528;8.078;2022-07-23T15:13:52;30.90;99.90
10083;DHT22;5080;48.528;8.078;2022-07-23T15:16:20;31.00;99.90
10083;DHT22;5080;48.528;8.078;2022-07-23T15:18:47;31.20;99.90
10083;DHT22;5080;48.528;8.078;2022-07-23T15:21:14;31.20;99.90
10083;DHT22;5080;48.528;8.078;2022-07-23T15:23:42;31.30;99.90
10083;DHT22;5080;48.528;8.078;2022-07-23T15:26:09;31.20;99.90
10083;DHT22;5080;48.528;8.078;2022-07-23T15:28:37;31.20;99.90
10083;DHT22;5080;48.528;8.078;2022-07-23T15:31:04;31.10;99.90
10083;DHT22;5080;48.528;8.078;2022-07-23T15:33:31;31.00;99.90
10083;DHT22;5080;48.528;8.078;2022-07-23T15:35:58;30.90;99.90
10083;DHT22;5080;48.528;8.078;2022-07-23T15:38:26;30.80;99.90
10083;DHT22;5080;48.528;8.078;2022-07-23T15:40:56;30.90;99.90
10083;DHT22;5080;48.528;8.078;2022-07-23T15:43:23;30.80;99.90
10083;DHT22;5080;48.528;8.078;2022-07-23T15:45:50;30.70;99.90
10083;DHT22;5080;48.528;8.078;2022-07-23T15:48:18;30.90;99.90
10083;DHT22;5080;48.528;8.078;2022-07-23T15:50:45;30.80;99.90
10083;DHT22;5080;48.528;8.078;2022-07-23T15:53:12;30.70;99.90
10083;DHT22;5080;48.528;8.078;2022-07-23T15:55:40;30.60;99.90
10083;DHT22;5080;48.528;8.078;2022-07-23T15:58:10;30.60;99.90
10083;DHT22;5080;48.528;8.078;2022-07-23T16:00:37;30.50;99.90